AirNav   TITAN Aviation Fuels
 
 380 users online  

06TN Hunter Airport
Columbia, Tennessee, USA

GOING TO COLUMBIA?


FAA INFORMATION EFFECTIVE 22 APRIL 2021

Location

FAA Identifier: 06TN
Lat/Long: 35-41-50.2490N 086-57-25.0110W
35-41.837483N 086-57.416850W
35.6972914,-86.9569475
(estimated)
Elevation: 640 ft. / 195 m (estimated)
Variation: 00W (1985)
From city: 6 miles NE of COLUMBIA, TN
Time zone: UTC -5 (UTC -6 during Standard Time)
Zip code: 38401

Airport Operations

Airport use: Private use. Permission required prior to landing
Activation date: 11/1961
Control tower: no
ARTCC: MEMPHIS CENTER
FSS: JACKSON FLIGHT SERVICE STATION
Attendance: SAT-SUN DAYLIGHT HOURS
Wind indicator: yes
Segmented circle: no

Airport Communications

WX AWOS-3 at LUG (14 nm SE): 135.775 (931-270-1014)
WX AWOS-3 at MRC (14 nm SW): 128.625 (931-379-0844)

Nearby radio navigation aids

VOR radial/distance  VOR name  Freq  Var
SYIr289/26.5SHELBYVILLE VOR/DME113.5501W
BNAr209/29.5NASHVILLE VORTAC114.1002W

 
NDB name  Hdg/Dist  Freq  Var  ID
WALTER HILL243/32.637102WFQW ..-. --.- .--

Airport Services

Parking: hangars and tiedowns
Airframe service: NONE
Powerplant service: NONE

Runway Information

Runway 5/23

Dimensions: 2000 x 50 ft. / 610 x 15 m
Surface: turf, in fair condition
RUNWAY 5  RUNWAY 23
Traffic pattern: leftleft
Markings: NSTDNSTD
Obstructions: 40 ft. trees, 225 ft. from runway, 100 ft. right of centerline, 5:1 slope to clear14 ft. trees, 100 ft. from runway, 50 ft. left of centerline, 7:1 slope to clear

Airport Ownership and Management from official FAA records

Ownership: Privately-owned
Owner: W. A. HUNTER, JR.
2816 HUNTER FIELD LANE
COLUMBIA, TN 38401
Phone 615-486-2336
Manager: W. A. HUNTER, JR.
2816 HUNTER FIELD LANE
NASHVILLE, TN 37211
Phone 615-486-2336
OTHER CONTACT: WAYNE BOLIN 2820 HUNTER FIELD COLUMBIA, TN 931-486-0496

Airport Operational Statistics

Aircraft based on the field: 21
Single engine airplanes: 18
Ultralights: 3
    
Aircraft operations: avg 125/week *
92% local general aviation
8% transient general aviation
* for 12-month period ending 18 July 1990

Additional Remarks

FOR CD CTC NASHVILLE APCH AT 615-695-4522.

Instrument Procedures

There are no published instrument procedures at 06TN.

Some nearby airports with instrument procedures:

KLUG - Ellington Airport (14 nm SE)
KMRC - Maury County Airport (14 nm SW)
KGHM - Centerville Municipal Airport (25 nm W)
KSYI - Bomar Field-Shelbyville Municipal Airport (26 nm E)
KMQY - Smyrna Airport (28 nm NE)
 
Loc | Ops | Rwys | IFR | FBO | Links
Com | Nav | Svcs | Stats | Notes
Area around 06TN (Hunter Airport)
 
Road maps at: MapQuest Bing Google
 
Aerial photo
WARNING: Photo may not be current or correct
Aerial photo of 06TN (Hunter Airport)
Do you have a better or more recent aerial photo of Hunter Airport that you would like to share? If so, please send us your photo.

 
Sectional chart

 
Airport distance calculator
Flying to Hunter Airport? Find the distance to fly.

From to 06TN

Sunrise and sunset
Times for 11-May-2021
 Local
(UTC-5)
 Zulu
(UTC)
Morning civil twilight05:1910:19
Sunrise05:4710:47
Sunset19:4100:41
Evening civil twilight20:1001:10

Current date and time
Zulu (UTC)  11-May-2021 08:27:31
Local (UTC-5)  11-May-2021 03:27:31
 
METAR
KLUG 
14nm SE 
110815Z AUTO 00000KT 9SM 06/06 A3012 RMK A01
KMRC 
14nm SW 
110755Z AUTO 00000KT 1/4SM FG OVC002 07/07 A3011 RMK A01
KSYI 
26nm E 
110815Z AUTO 00000KT 10SM CLR 07/07 A3011 RMK A01
TAF
NOTAMs
Click for the latest NOTAMs
NOTAMs are issued by the DoD/FAA and will open in a separate window not controlled by AirNav.

 

 
 

Would you like to see your business listed on this page?

 If your business provides an interesting product or service to pilots, flight crews, aircraft, or users of the Hunter Airport, you should consider listing it here.  To start the listing process, click on the button below
 
Add a business
 

Other Pages about Hunter Airport

Update a link
 
Copyright © AirNav, LLC. All rights reserved. Privacy Policy  Contact